Time;durP1;ratioP1;P1;durP2;ratioP2;P2;SDS_P1;SDS_P2;PMS_P1;PMS_P2;Temp;Humidity;BMP_temperature;BMP_pressure;BME280_temperature;BME280_humidity;BME280_pressure;Samples;Min_cycle;Max_cycle;Signal;HPM_P1;HPM_P2
2022/11/21 00:01:32;;;;;;;12.60;7.03;;;8.00;99.90;;;;;;4873423;29;36038;-71
2022/11/21 00:03:58;;;;;;;18.30;8.43;;;7.80;99.90;;;;;;4878176;29;49679;-71
2022/11/21 00:06:24;;;;;;;16.57;7.63;;;7.60;99.90;;;;;;4880954;29;37184;-72
2022/11/21 00:08:50;;;;;;;14.43;8.50;;;7.50;99.90;;;;;;4885377;29;38042;-70
2022/11/21 00:11:17;;;;;;;16.83;9.37;;;7.40;99.90;;;;;;4876664;29;36072;-71
2022/11/21 00:13:44;;;;;;;15.37;9.87;;;7.30;99.90;;;;;;4882160;29;39147;-71
2022/11/21 00:16:12;;;;;;;15.70;10.50;;;7.20;99.90;;;;;;4859826;29;37663;-71
2022/11/21 00:18:39;;;;;;;14.00;9.57;;;7.10;99.90;;;;;;4884453;29;38186;-71
2022/11/21 00:21:07;;;;;;;17.00;10.27;;;7.00;99.90;;;;;;4887296;29;37516;-71
2022/11/21 00:23:33;;;;;;;16.60;10.80;;;7.00;99.90;;;;;;4884548;29;47072;-71
2022/11/21 00:26:03;;;;;;;19.77;11.03;;;6.90;99.90;;;;;;4876663;29;37678;-73
2022/11/21 00:28:29;;;;;;;17.27;11.43;;;6.80;99.90;;;;;;4889682;29;46898;-72
2022/11/21 00:30:56;;;;;;;13.63;9.97;;;6.80;99.90;;;;;;4890258;29;38047;-72
2022/11/21 00:33:22;;;;;;;17.23;11.43;;;6.70;99.90;;;;;;4872870;29;37655;-72
2022/11/21 00:35:48;;;;;;;14.77;11.80;;;6.70;99.90;;;;;;4884328;29;39068;-72
2022/11/21 00:38:15;;;;;;;17.47;12.20;;;6.60;99.90;;;;;;4890865;29;37010;-72
2022/11/21 00:40:44;;;;;;;17.20;12.60;;;6.50;99.90;;;;;;4876507;29;36430;-72
2022/11/21 00:43:11;;;;;;;22.70;13.70;;;6.40;99.90;;;;;;4891474;29;38891;-72
2022/11/21 00:45:37;;;;;;;23.37;13.70;;;6.30;99.90;;;;;;4888307;29;38386;-72
2022/11/21 00:48:03;;;;;;;18.80;12.63;;;6.20;99.90;;;;;;4886495;29;36951;-72
2022/11/21 00:50:29;;;;;;;20.03;13.70;;;6.20;99.90;;;;;;4890679;29;36544;-72
2022/11/21 00:52:56;;;;;;;20.93;14.40;;;6.10;99.90;;;;;;4891744;29;38915;-72
2022/11/21 00:55:23;;;;;;;23.63;14.67;;;6.10;99.90;;;;;;4873548;29;37624;-71
2022/11/21 00:57:50;;;;;;;19.40;12.63;;;6.10;99.90;;;;;;4885007;29;38016;-72
2022/11/21 01:00:18;;;;;;;18.17;13.67;;;6.00;99.90;;;;;;4888054;29;38072;-72
2022/11/21 01:02:44;;;;;;;19.53;12.93;;;6.10;99.90;;;;;;4884968;29;37594;-72
2022/11/21 01:05:10;;;;;;;24.20;14.73;;;6.10;99.90;;;;;;4886088;29;38206;-72
2022/11/21 01:07:36;;;;;;;21.73;15.03;;;6.20;99.90;;;;;;4889545;29;37778;-71
2022/11/21 01:10:02;;;;;;;22.00;14.80;;;6.10;99.90;;;;;;4887391;29;38213;-71
2022/11/21 01:12:30;;;;;;;19.20;13.50;;;6.10;99.90;;;;;;4872961;29;37563;-71
2022/11/21 01:14:56;;;;;;;23.77;14.33;;;6.20;99.90;;;;;;4878515;29;38938;-72
2022/11/21 01:17:22;;;;;;;23.27;13.77;;;6.20;99.90;;;;;;4883201;29;40213;-72
2022/11/21 01:19:48;;;;;;;18.73;12.67;;;6.20;99.90;;;;;;4882255;29;37174;-72
2022/11/21 01:22:14;;;;;;;16.93;12.03;;;6.20;99.90;;;;;;4882437;29;38988;-72
2022/11/21 01:24:40;;;;;;;16.03;11.87;;;6.10;99.90;;;;;;4863966;29;35796;-72
2022/11/21 01:27:06;;;;;;;18.07;13.33;;;6.10;99.90;;;;;;4876363;29;37261;-72
2022/11/21 01:29:32;;;;;;;15.60;10.70;;;6.00;99.90;;;;;;4878368;29;37029;-72
2022/11/21 01:31:58;;;;;;;15.87;10.50;;;6.00;99.90;;;;;;4860113;29;38426;-72
2022/11/21 01:34:24;;;;;;;19.70;12.97;;;6.00;99.90;;;;;;4877419;29;38814;-71
2022/11/21 01:36:50;;;;;;;23.40;13.73;;;6.00;99.90;;;;;;4882155;29;38002;-71
2022/11/21 01:39:17;;;;;;;17.20;12.60;;;6.00;99.90;;;;;;4864422;29;36280;-72
2022/11/21 01:41:44;;;;;;;25.37;17.13;;;5.90;99.90;;;;;;4863621;29;37818;-72
2022/11/21 01:44:25;;;;;;;21.07;14.20;;;5.90;99.90;;;;;;4885273;29;38425;-72
2022/11/21 01:46:52;;;;;;;27.93;17.30;;;5.80;99.90;;;;;;4883668;29;38233;-72
2022/11/21 01:49:24;;;;;;;22.63;14.97;;;5.80;99.90;;;;;;4884987;29;37061;-71
2022/11/21 01:52:08;;;;;;;29.67;20.23;;;5.70;99.90;;;;;;4881247;29;37912;-71
2022/11/21 01:54:46;;;;;;;19.60;14.47;;;5.70;99.90;;;;;;4882103;29;48962;-72
2022/11/21 01:57:23;;;;;;;25.57;14.93;;;5.60;99.90;;;;;;4883803;29;39232;-72
2022/11/21 02:00:09;;;;;;;21.90;15.57;;;5.50;99.90;;;;;;4878540;29;35972;-72
2022/11/21 02:02:41;;;;;;;20.80;14.17;;;5.40;99.90;;;;;;5309175;23;38699;-72
2022/11/21 02:05:15;;;;;;;31.73;18.90;;;5.40;99.90;;;;;;4868418;29;38369;-72
2022/11/21 02:07:45;;;;;;;24.87;16.80;;;5.30;99.90;;;;;;4874715;29;38716;-72
2022/11/21 02:10:11;;;;;;;23.63;16.83;;;5.30;99.90;;;;;;4890921;29;38223;-72
2022/11/21 02:12:51;;;;;;;25.10;15.83;;;5.30;99.90;;;;;;4874313;29;39359;-72
2022/11/21 02:15:19;;;;;;;27.77;18.73;;;5.30;99.90;;;;;;4889727;29;37465;-71
2022/11/21 02:17:45;;;;;;;24.23;16.37;;;5.40;99.90;;;;;;4891971;29;36810;-72
2022/11/21 02:20:19;;;;;;;26.53;18.23;;;5.40;99.90;;;;;;4872801;29;36455;-72
2022/11/21 02:22:51;;;;;;;20.60;14.50;;;5.50;99.90;;;;;;4881587;29;38858;-72
2022/11/21 02:25:26;;;;;;;25.80;16.42;;;5.50;99.90;;;;;;4884616;29;37368;-72
2022/11/21 02:28:04;;;;;;;23.17;16.70;;;5.50;99.90;;;;;;4899521;29;37841;-72
2022/11/21 02:30:34;;;;;;;22.73;15.97;;;5.50;99.90;;;;;;4897860;29;44946;-71
2022/11/21 02:33:00;;;;;;;22.33;15.43;;;5.50;99.90;;;;;;4902466;29;38833;-72
2022/11/21 02:35:26;;;;;;;25.53;17.67;;;5.60;99.90;;;;;;4886763;29;37242;-72
2022/11/21 02:38:17;;;;;;;24.73;16.77;;;5.60;99.90;;;;;;4888710;28;37898;-71
2022/11/21 02:40:52;;;;;;;25.17;15.60;;;5.50;99.90;;;;;;4885164;29;47120;-72
2022/11/21 02:43:29;;;;;;;26.40;17.63;;;5.40;99.90;;;;;;4886750;29;38734;-72
2022/11/21 02:45:57;;;;;;;22.70;15.53;;;5.40;99.90;;;;;;4900749;29;37309;-72
2022/11/21 02:48:23;;;;;;;25.93;18.87;;;5.30;99.90;;;;;;4901318;29;37058;-72
2022/11/21 02:50:49;;;;;;;27.87;17.00;;;5.30;99.90;;;;;;4883993;29;37692;-72
2022/11/21 02:53:17;;;;;;;32.37;19.90;;;5.30;99.90;;;;;;4879291;28;38013;-72
2022/11/21 02:55:44;;;;;;;25.50;17.57;;;5.20;99.90;;;;;;4898663;29;38672;-72
2022/11/21 02:58:11;;;;;;;26.77;17.60;;;5.20;99.90;;;;;;4885189;29;36682;-72
2022/11/21 03:00:39;;;;;;;30.10;20.17;;;5.10;99.90;;;;;;4898958;29;37573;-72
2022/11/21 03:03:05;;;;;;;29.73;19.00;;;5.00;99.90;;;;;;4883529;29;38651;-72
2022/11/21 03:05:31;;;;;;;30.40;20.97;;;4.90;99.90;;;;;;4886111;29;38951;-72
2022/11/21 03:07:57;;;;;;;34.17;20.50;;;4.70;99.90;;;;;;4882472;29;38028;-72
2022/11/21 03:10:24;;;;;;;35.57;22.37;;;4.70;99.90;;;;;;4884291;29;37120;-73
2022/11/21 03:12:50;;;;;;;24.17;17.27;;;4.60;99.90;;;;;;4900414;28;40200;-72
2022/11/21 03:15:16;;;;;;;28.97;19.63;;;4.50;99.90;;;;;;4885138;29;38809;-72
2022/11/21 03:17:42;;;;;;;26.27;17.63;;;4.50;99.90;;;;;;4888082;29;36971;-72
2022/11/21 03:20:09;;;;;;;26.83;19.10;;;4.50;99.90;;;;;;4904076;29;37218;-73
2022/11/21 03:22:35;;;;;;;28.80;19.70;;;4.30;99.90;;;;;;4899874;29;37579;-72
2022/11/21 03:25:01;;;;;;;33.83;20.27;;;4.30;99.90;;;;;;4882994;29;38608;-72
2022/11/21 03:27:27;;;;;;;34.07;23.50;;;4.20;99.90;;;;;;4883489;29;39603;-72
2022/11/21 03:29:53;;;;;;;38.13;21.60;;;4.20;99.90;;;;;;4880558;29;36792;-72
2022/11/21 03:32:19;;;;;;;32.30;20.77;;;4.20;99.90;;;;;;4898743;29;38039;-72
2022/11/21 03:34:45;;;;;;;29.03;19.63;;;4.20;99.90;;;;;;4900220;29;35896;-72
2022/11/21 03:37:11;;;;;;;26.40;19.43;;;4.20;99.90;;;;;;4899781;29;37188;-72
2022/11/21 03:39:38;;;;;;;39.50;24.70;;;4.20;99.90;;;;;;4882917;29;36322;-70
2022/11/21 03:42:04;;;;;;;27.97;20.33;;;4.20;99.90;;;;;;4886142;29;38704;-70
2022/11/21 03:44:30;;;;;;;31.50;22.17;;;4.20;99.90;;;;;;4887745;29;39391;-71
2022/11/21 03:46:56;;;;;;;46.07;26.93;;;4.10;99.90;;;;;;4885826;29;37896;-71
2022/11/21 03:49:22;;;;;;;42.07;27.00;;;4.10;99.90;;;;;;4901184;29;34107;-70
2022/11/21 03:51:48;;;;;;;38.57;26.50;;;4.00;99.90;;;;;;4897232;29;37500;-70
2022/11/21 03:54:14;;;;;;;42.37;27.83;;;4.00;99.90;;;;;;4904780;28;38197;-70
2022/11/21 03:56:40;;;;;;;44.70;28.57;;;3.90;99.90;;;;;;4886616;29;37203;-70
2022/11/21 03:59:06;;;;;;;31.23;21.53;;;3.80;99.90;;;;;;4882810;29;37159;-71
2022/11/21 04:01:33;;;;;;;37.90;24.17;;;3.80;99.90;;;;;;4900611;29;37789;-72
2022/11/21 04:03:59;;;;;;;46.50;29.13;;;3.80;99.90;;;;;;4899698;29;37389;-70
2022/11/21 04:06:25;;;;;;;38.87;25.60;;;3.70;99.90;;;;;;4895257;29;36762;-72
2022/11/21 04:08:51;;;;;;;39.27;25.40;;;3.60;99.90;;;;;;4903123;29;37225;-72
2022/11/21 04:11:20;;;;;;;32.67;22.43;;;3.50;99.90;;;;;;4891905;29;38440;-73
2022/11/21 04:13:46;;;;;;;32.97;22.20;;;3.50;99.90;;;;;;4891173;29;38608;-72
2022/11/21 04:16:13;;;;;;;39.97;24.90;;;3.50;99.90;;;;;;4893272;29;37529;-71
2022/11/21 04:18:39;;;;;;;40.03;26.50;;;3.40;99.90;;;;;;4890560;29;37419;-72
2022/11/21 04:21:06;;;;;;;42.33;25.80;;;3.40;99.90;;;;;;4890311;29;38765;-72
2022/11/21 04:23:33;;;;;;;42.50;25.90;;;3.40;99.90;;;;;;4890835;29;38464;-72
2022/11/21 04:25:59;;;;;;;33.80;24.47;;;3.30;99.90;;;;;;4905867;29;37684;-71
2022/11/21 04:28:25;;;;;;;34.03;23.63;;;3.20;99.90;;;;;;4888005;29;38358;-72
2022/11/21 04:30:51;;;;;;;31.60;22.10;;;3.20;99.90;;;;;;4903071;29;38518;-71
2022/11/21 04:33:18;;;;;;;29.87;20.97;;;3.20;99.90;;;;;;4904547;29;36125;-71
2022/11/21 04:35:45;;;;;;;40.73;27.17;;;3.10;99.90;;;;;;4904168;29;37128;-71
2022/11/21 04:38:12;;;;;;;36.93;24.63;;;3.10;99.90;;;;;;4886393;29;36177;-71
2022/11/21 04:40:38;;;;;;;38.83;26.33;;;3.10;99.90;;;;;;4884634;29;38800;-71
2022/11/21 04:43:05;;;;;;;37.73;25.80;;;3.00;99.90;;;;;;4881915;29;38178;-72
2022/11/21 04:45:31;;;;;;;31.10;21.40;;;3.00;99.90;;;;;;4905716;29;36826;-71
2022/11/21 04:47:57;;;;;;;31.23;21.77;;;3.00;99.90;;;;;;4892196;29;38188;-72
2022/11/21 04:50:23;;;;;;;32.93;23.70;;;3.00;99.90;;;;;;4892370;29;37473;-71
2022/11/21 04:52:51;;;;;;;36.57;23.37;;;3.10;99.90;;;;;;4886240;29;38754;-71
2022/11/21 04:55:18;;;;;;;34.10;24.37;;;3.20;99.90;;;;;;4883404;29;37927;-71
2022/11/21 04:57:45;;;;;;;38.13;27.20;;;3.20;99.90;;;;;;4889840;29;36403;-71
2022/11/21 05:00:12;;;;;;;46.87;28.27;;;3.30;99.90;;;;;;4893768;29;39429;-72
2022/11/21 05:02:38;;;;;;;36.13;23.70;;;3.40;99.90;;;;;;4888644;29;38273;-72
2022/11/21 05:05:05;;;;;;;44.03;27.70;;;3.50;99.90;;;;;;4897239;29;37071;-73
2022/11/21 05:07:31;;;;;;;37.33;25.43;;;3.60;99.90;;;;;;4887602;29;38534;-72
2022/11/21 05:09:57;;;;;;;38.60;26.50;;;3.60;99.90;;;;;;4883988;29;39949;-73
2022/11/21 05:15:08;;;;;;;34.63;25.97;;;3.70;99.90;;;;;;4889832;29;38605;-72
2022/11/21 05:17:34;;;;;;;55.03;33.20;;;3.60;99.90;;;;;;4887491;29;37335;-72
2022/11/21 05:20:00;;;;;;;49.97;31.47;;;3.50;99.90;;;;;;4892698;29;39088;-72
2022/11/21 05:22:27;;;;;;;50.77;30.90;;;3.60;99.90;;;;;;4891650;29;37540;-71
2022/11/21 05:24:53;;;;;;;36.07;24.60;;;3.70;99.90;;;;;;4891863;29;37609;-72
2022/11/21 05:27:19;;;;;;;39.77;25.27;;;3.80;99.90;;;;;;4889126;29;37658;-72
2022/11/21 05:29:45;;;;;;;35.27;24.93;;;3.70;99.90;;;;;;4903511;29;37652;-72
2022/11/21 05:32:11;;;;;;;37.37;26.70;;;3.80;99.90;;;;;;4892656;29;38971;-72
2022/11/21 05:34:37;;;;;;;32.63;24.67;;;3.80;99.90;;;;;;4890351;29;38011;-71
2022/11/21 05:37:03;;;;;;;32.90;25.00;;;3.80;99.90;;;;;;4903430;28;36975;-73
2022/11/21 05:39:29;;;;;;;40.07;26.60;;;3.90;99.90;;;;;;4907759;29;37874;-72
2022/11/21 05:41:55;;;;;;;34.03;25.13;;;3.90;99.90;;;;;;4890832;29;38550;-72
2022/11/21 05:44:21;;;;;;;31.77;24.07;;;3.90;99.90;;;;;;4889937;29;38158;-73
2022/11/21 05:46:47;;;;;;;39.30;25.57;;;3.80;99.90;;;;;;4904280;29;36141;-72
2022/11/21 05:49:13;;;;;;;45.63;29.60;;;3.70;99.90;;;;;;4906277;29;38160;-73
2022/11/21 05:51:40;;;;;;;33.33;25.53;;;3.60;99.90;;;;;;4892654;29;38714;-72
2022/11/21 05:54:06;;;;;;;38.87;26.43;;;3.50;99.90;;;;;;4892997;28;38156;-73
2022/11/21 05:56:32;;;;;;;39.50;26.90;;;3.50;99.90;;;;;;4892401;29;37296;-73
2022/11/21 05:58:58;;;;;;;32.10;23.80;;;3.40;99.90;;;;;;4891504;29;39149;-72
2022/11/21 06:04:10;;;;;;;33.70;23.53;;;3.50;99.90;;;;;;4882422;29;38880;-73
2022/11/21 06:06:36;;;;;;;34.97;23.97;;;3.60;99.90;;;;;;4887411;29;36413;-73
2022/11/21 06:09:03;;;;;;;38.47;25.67;;;3.80;99.90;;;;;;4892749;29;38629;-72
2022/11/21 06:11:29;;;;;;;47.30;29.17;;;3.80;99.90;;;;;;4888938;29;38345;-72
2022/11/21 06:13:56;;;;;;;44.40;28.57;;;3.90;99.90;;;;;;4907039;29;37961;-72
2022/11/21 06:16:22;;;;;;;44.00;29.83;;;3.90;99.90;;;;;;4893561;29;38319;-72
2022/11/21 06:18:51;;;;;;;43.57;28.13;;;3.90;99.90;;;;;;4886293;29;38228;-74
2022/11/21 06:21:22;;;;;;;50.40;30.13;;;3.90;99.90;;;;;;4891699;29;39555;-73
2022/11/21 06:23:54;;;;;;;34.27;24.43;;;4.00;99.90;;;;;;4887662;29;37999;-75
2022/11/21 06:26:22;;;;;;;32.03;22.35;;;4.10;99.90;;;;;;4904751;29;35709;-74
2022/11/21 06:28:49;;;;;;;48.63;28.93;;;4.10;99.90;;;;;;4892471;29;38461;-74
2022/11/21 06:31:23;;;;;;;33.20;24.53;;;4.20;99.90;;;;;;4904754;29;38212;-75
2022/11/21 06:33:54;;;;;;;32.33;22.03;;;4.30;99.90;;;;;;4888794;29;36825;-73
2022/11/21 06:36:21;;;;;;;35.83;23.40;;;4.40;99.90;;;;;;4903824;29;36405;-73
2022/11/21 06:38:47;;;;;;;39.87;26.27;;;4.40;99.90;;;;;;4891801;29;38776;-74
2022/11/21 06:41:18;;;;;;;47.67;29.10;;;4.40;99.90;;;;;;4883213;29;38709;-73
2022/11/21 06:43:45;;;;;;;47.93;25.40;;;4.40;99.90;;;;;;4886455;29;36938;-73
2022/11/21 06:46:11;;;;;;;26.67;19.17;;;4.40;99.90;;;;;;4887418;29;37231;-74
2022/11/21 06:48:38;;;;;;;30.77;20.03;;;4.30;99.90;;;;;;4883235;29;37728;-73
2022/11/21 06:51:18;;;;;;;23.97;16.70;;;4.40;99.90;;;;;;4884913;29;39428;-74
2022/11/21 06:53:45;;;;;;;37.73;20.80;;;4.30;99.90;;;;;;4882288;29;38293;-74
2022/11/21 06:56:11;;;;;;;29.43;19.00;;;4.30;99.90;;;;;;4884052;29;37936;-74
2022/11/21 06:58:37;;;;;;;41.47;22.57;;;4.30;99.90;;;;;;4897088;29;38752;-74
2022/11/21 07:01:08;;;;;;;31.83;16.37;;;4.30;99.90;;;;;;4898568;29;38524;-74
2022/11/21 07:03:35;;;;;;;36.40;18.47;;;4.20;99.90;;;;;;4879766;29;49088;-74
2022/11/21 07:06:01;;;;;;;31.77;15.13;;;4.20;99.90;;;;;;4878842;29;37825;-74
2022/11/21 07:08:29;;;;;;;27.87;16.43;;;4.20;99.90;;;;;;4882588;28;38388;-72
2022/11/21 07:10:59;;;;;;;20.07;10.70;;;4.30;99.90;;;;;;4898024;29;37546;-72
2022/11/21 07:13:27;;;;;;;15.57;8.33;;;4.50;99.90;;;;;;4886207;29;37244;-73
2022/11/21 07:15:59;;;;;;;9.73;6.00;;;4.70;99.90;;;;;;4901278;29;38475;-73
2022/11/21 07:18:25;;;;;;;12.47;5.23;;;4.90;99.90;;;;;;4884039;29;39838;-72
2022/11/21 07:20:56;;;;;;;14.57;6.07;;;5.10;99.90;;;;;;4893617;29;38542;-73
2022/11/21 07:23:22;;;;;;;19.43;6.30;;;5.20;99.90;;;;;;4899048;28;37045;-72
2022/11/21 07:25:48;;;;;;;12.97;5.43;;;5.30;99.90;;;;;;4887171;29;38251;-72
2022/11/21 07:28:14;;;;;;;19.83;7.03;;;5.20;99.90;;;;;;4903771;29;37671;-74
2022/11/21 07:30:40;;;;;;;11.03;4.13;;;5.20;99.90;;;;;;4881705;29;39178;-74
2022/11/21 07:33:08;;;;;;;9.03;4.80;;;5.20;99.90;;;;;;4903346;29;38487;-74
2022/11/21 07:35:35;;;;;;;12.13;4.60;;;5.10;99.90;;;;;;4887010;29;37775;-74
2022/11/21 07:38:02;;;;;;;10.63;4.43;;;5.10;99.90;;;;;;4884542;29;38856;-72
2022/11/21 07:40:29;;;;;;;11.37;5.03;;;5.10;99.90;;;;;;4884455;29;47022;-72
2022/11/21 07:43:01;;;;;;;16.17;5.17;;;5.20;99.90;;;;;;4890172;29;38294;-74
2022/11/21 07:45:27;;;;;;;17.15;5.43;;;5.30;99.90;;;;;;4901377;29;36418;-73
2022/11/21 07:47:58;;;;;;;16.57;5.70;;;5.30;99.90;;;;;;4892046;29;38978;-74
2022/11/21 07:50:24;;;;;;;12.73;5.73;;;5.40;99.90;;;;;;4884102;29;39955;-74
2022/11/21 07:52:50;;;;;;;24.27;8.20;;;5.40;99.90;;;;;;4885189;29;36949;-74
2022/11/21 07:55:16;;;;;;;12.93;5.03;;;5.40;99.90;;;;;;4898552;29;35880;-74
2022/11/21 07:57:42;;;;;;;11.20;5.00;;;5.50;99.90;;;;;;4887005;29;39792;-72
2022/11/21 08:00:09;;;;;;;7.80;4.70;;;5.50;99.90;;;;;;4879752;28;40859;-72
2022/11/21 08:02:35;;;;;;;10.63;4.53;;;5.50;99.90;;;;;;4854376;29;1220317;-72
2022/11/21 08:05:01;;;;;;;17.20;4.60;;;5.50;99.90;;;;;;4896543;29;36587;-72
2022/11/21 08:07:27;;;;;;;16.73;5.57;;;5.50;99.90;;;;;;4900046;29;39912;-73
2022/11/21 08:09:53;;;;;;;18.77;4.70;;;5.50;99.90;;;;;;4899283;29;35287;-73
2022/11/21 08:12:19;;;;;;;16.30;5.07;;;5.50;99.90;;;;;;4901087;29;39387;-73
2022/11/21 08:14:45;;;;;;;18.53;5.03;;;5.50;99.90;;;;;;4889831;29;37899;-73
2022/11/21 08:17:12;;;;;;;13.60;4.47;;;5.50;99.90;;;;;;4890460;29;37681;-73
2022/11/21 08:19:38;;;;;;;12.83;4.63;;;5.60;99.90;;;;;;4884767;29;37862;-73
2022/11/21 08:22:04;;;;;;;14.33;4.40;;;5.60;99.90;;;;;;4888716;29;39395;-73
2022/11/21 08:24:31;;;;;;;22.33;4.87;;;5.60;99.90;;;;;;4884670;29;36856;-73
2022/11/21 08:26:58;;;;;;;15.73;4.93;;;5.60;99.90;;;;;;4887254;29;40215;-73
2022/11/21 08:29:25;;;;;;;11.87;4.17;;;5.60;99.90;;;;;;4888302;29;38925;-72
2022/11/21 08:31:51;;;;;;;11.83;4.07;;;5.70;99.90;;;;;;4890383;29;39084;-73
2022/11/21 08:34:17;;;;;;;15.60;4.27;;;5.70;99.90;;;;;;4887586;29;38157;-73
2022/11/21 08:36:43;;;;;;;15.17;4.60;;;5.70;99.90;;;;;;4887147;29;39120;-73
2022/11/21 08:39:09;;;;;;;15.07;4.90;;;5.70;99.90;;;;;;4903922;29;37509;-73
2022/11/21 08:44:20;;;;;;;22.33;4.90;;;5.70;99.90;;;;;;4887842;29;38627;-74
2022/11/21 08:46:46;;;;;;;16.53;6.00;;;5.80;99.90;;;;;;4880622;29;39650;-74
2022/11/21 08:49:12;;;;;;;16.30;5.60;;;5.80;99.90;;;;;;4877482;29;38683;-73
2022/11/21 08:51:38;;;;;;;17.33;6.20;;;5.80;99.90;;;;;;4874238;29;38048;-73
2022/11/21 08:54:05;;;;;;;18.23;7.53;;;5.90;99.90;;;;;;4893465;29;35626;-73
2022/11/21 08:56:31;;;;;;;14.50;6.03;;;6.00;99.90;;;;;;4906457;29;38868;-74
2022/11/21 08:58:57;;;;;;;23.67;7.13;;;6.00;99.90;;;;;;4898325;29;38349;-73
2022/11/21 09:01:23;;;;;;;16.90;6.60;;;6.00;99.90;;;;;;4885065;29;39620;-73
2022/11/21 09:03:49;;;;;;;17.00;7.40;;;6.10;99.90;;;;;;4902956;29;36097;-72
2022/11/21 09:06:15;;;;;;;24.37;8.30;;;6.10;99.90;;;;;;4895682;29;37669;-73
2022/11/21 09:08:41;;;;;;;14.20;7.47;;;6.20;99.90;;;;;;4892079;29;38192;-73
2022/11/21 09:11:08;;;;;;;21.47;7.50;;;6.20;99.90;;;;;;4891277;29;39045;-72
2022/11/21 09:13:35;;;;;;;18.17;7.83;;;6.30;99.90;;;;;;4890770;29;36223;-73
2022/11/21 09:18:47;;;;;;;16.93;8.33;;;6.40;99.90;;;;;;4887533;29;49120;-74
2022/11/21 09:21:15;;;;;;;23.43;8.33;;;6.40;99.90;;;;;;4884828;29;36961;-74
2022/11/21 09:23:41;;;;;;;18.57;8.70;;;6.50;99.90;;;;;;4889439;29;37239;-73
2022/11/21 09:26:08;;;;;;;23.40;9.87;;;6.50;99.90;;;;;;4902678;28;38553;-73
2022/11/21 09:28:35;;;;;;;23.50;8.77;;;6.50;99.90;;;;;;4903693;29;37490;-74
2022/11/21 09:31:01;;;;;;;16.33;8.57;;;6.60;99.90;;;;;;4890877;29;38429;-74
2022/11/21 09:33:30;;;;;;;18.57;8.80;;;6.60;99.90;;;;;;4893587;29;37277;-71
2022/11/21 09:36:00;;;;;;;22.97;9.93;;;6.70;99.90;;;;;;4890353;29;40335;-73
2022/11/21 09:38:31;;;;;;;19.53;10.07;;;6.70;99.90;;;;;;4887262;29;38548;-72
2022/11/21 09:44:42;;;;;;;24.70;10.47;;;6.80;99.90;;;;;;4863310;29;49083;-74
2022/11/21 09:47:30;;;;;;;21.03;9.77;;;6.80;99.90;;;;;;4901886;29;37542;-74
2022/11/21 09:50:04;;;;;;;25.87;10.57;;;6.90;99.90;;;;;;4887735;29;38234;-73
2022/11/21 09:52:43;;;;;;;23.23;9.80;;;7.00;99.90;;;;;;4897434;29;47434;-75
2022/11/21 09:55:34;;;;;;;20.47;9.70;;;7.00;99.90;;;;;;4900633;29;36452;-74
2022/11/21 09:58:05;;;;;;;24.60;10.13;;;7.10;99.90;;;;;;4899382;29;37433;-74
2022/11/21 10:00:31;;;;;;;25.47;10.40;;;7.10;99.90;;;;;;4891947;29;47329;-74
2022/11/21 10:02:59;;;;;;;26.60;10.93;;;7.10;99.90;;;;;;4883999;29;37935;-74
2022/11/21 10:05:40;;;;;;;18.90;10.17;;;7.10;99.90;;;;;;4879430;29;37447;-73
2022/11/21 10:08:34;;;;;;;27.20;11.80;;;7.10;99.90;;;;;;4884056;29;37716;-74
2022/11/21 10:11:24;;;;;;;25.93;10.67;;;7.10;99.90;;;;;;4882973;29;39383;-73
2022/11/21 10:14:07;;;;;;;22.87;11.00;;;7.10;99.90;;;;;;4884279;28;48539;-72
2022/11/21 10:16:52;;;;;;;22.73;11.53;;;7.10;99.90;;;;;;4884276;29;47431;-74
2022/11/21 10:19:33;;;;;;;27.00;11.27;;;7.10;99.90;;;;;;4888856;29;38011;-74
2022/11/21 10:22:06;;;;;;;18.00;8.63;;;7.10;99.90;;;;;;4889594;29;38688;-73
2022/11/21 10:24:51;;;;;;;21.27;9.63;;;7.10;99.90;;;;;;4889719;29;48921;-72
2022/11/21 10:27:36;;;;;;;23.90;8.90;;;7.10;99.90;;;;;;4890860;29;35949;-72
2022/11/21 10:30:05;;;;;;;28.57;9.23;;;7.10;99.90;;;;;;4907499;29;38260;-73
2022/11/21 10:32:39;;;;;;;24.23;9.47;;;7.10;99.90;;;;;;4881612;29;47199;-72
2022/11/21 10:35:20;;;;;;;21.63;11.17;;;7.10;99.90;;;;;;4907471;29;37203;-73
2022/11/21 10:38:09;;;;;;;27.10;11.43;;;7.20;99.90;;;;;;4895829;29;36031;-73
2022/11/21 10:40:40;;;;;;;26.83;12.00;;;7.30;99.90;;;;;;4893445;29;48731;-72
2022/11/21 10:46:33;;;;;;;24.23;10.37;;;7.40;99.90;;;;;;4895695;29;49433;-73
2022/11/21 10:49:03;;;;;;;26.77;10.63;;;7.50;99.90;;;;;;4896180;29;37547;-72
2022/11/21 10:51:41;;;;;;;23.97;10.77;;;7.60;99.90;;;;;;4893572;29;48625;-73
2022/11/21 10:57:15;;;;;;;20.77;9.20;;;7.70;99.90;;;;;;4899622;29;39096;-73
2022/11/21 10:59:57;;;;;;;24.10;9.50;;;7.80;99.90;;;;;;4909888;29;46970;-72
2022/11/21 11:02:24;;;;;;;18.98;7.95;;;7.90;99.90;;;;;;4897513;29;39049;-72
2022/11/21 11:05:19;;;;;;;21.40;8.10;;;7.80;99.90;;;;;;4897623;29;38545;-73
2022/11/21 11:08:08;;;;;;;19.43;6.27;;;7.90;99.90;;;;;;4897770;29;47249;-72
2022/11/21 11:10:41;;;;;;;13.93;5.37;;;7.90;99.90;;;;;;4890809;29;48981;-73
2022/11/21 11:13:32;;;;;;;18.30;5.23;;;7.90;99.90;;;;;;4888907;29;38937;-73
2022/11/21 11:16:10;;;;;;;14.33;4.90;;;8.00;99.90;;;;;;4891096;29;38853;-73
2022/11/21 11:18:44;;;;;;;14.37;3.90;;;8.10;99.90;;;;;;4904734;29;47023;-73
2022/11/21 11:21:19;;;;;;;13.37;3.90;;;8.20;99.90;;;;;;4896057;29;37183;-73
2022/11/21 11:23:47;;;;;;;10.60;2.87;;;8.20;99.90;;;;;;4900762;29;37944;-73
2022/11/21 11:26:21;;;;;;;10.97;2.57;;;8.20;99.90;;;;;;4902030;29;36287;-73
2022/11/21 11:28:48;;;;;;;8.80;2.73;;;8.30;99.90;;;;;;4892145;29;38176;-72
2022/11/21 11:31:14;;;;;;;10.97;2.43;;;8.20;99.90;;;;;;4893404;29;37299;-73
2022/11/21 11:33:53;;;;;;;11.40;3.07;;;8.30;99.90;;;;;;4892970;29;38793;-73
2022/11/21 11:36:44;;;;;;;11.17;2.47;;;8.30;99.90;;;;;;4891376;29;37638;-72
2022/11/21 11:39:25;;;;;;;8.40;2.07;;;8.30;99.90;;;;;;4896011;29;36785;-72
2022/11/21 11:47:49;;;;;;;10.77;2.33;;;8.60;99.90;;;;;;4879335;29;50549;-72
2022/11/21 11:50:18;;;;;;;8.27;2.57;;;8.70;99.90;;;;;;4884272;29;38774;-72
2022/11/21 11:53:12;;;;;;;10.73;2.83;;;8.70;99.90;;;;;;4890388;29;36162;-73
2022/11/21 11:55:52;;;;;;;12.53;3.03;;;8.70;99.90;;;;;;4886158;29;48687;-73
2022/11/21 11:58:42;;;;;;;7.83;2.67;;;8.80;99.90;;;;;;4899436;29;37780;-72
2022/11/21 12:01:14;;;;;;;9.10;2.80;;;8.80;99.90;;;;;;4888960;29;37743;-72
2022/11/21 12:03:55;;;;;;;8.45;3.25;;;8.70;99.90;;;;;;4889241;29;37212;-72
2022/11/21 12:06:25;;;;;;;11.40;3.90;;;8.70;99.90;;;;;;4899577;29;37538;-71
2022/11/21 12:09:21;;;;;;;13.47;3.60;;;8.70;99.90;;;;;;4906744;29;37425;-72
2022/11/21 12:12:06;;;;;;;17.17;4.40;;;8.60;99.90;;;;;;4852601;29;48666;-72
2022/11/21 12:17:32;;;;;;;16.13;4.13;;;8.60;99.90;;;;;;4888211;29;40360;-72
2022/11/21 12:20:01;;;;;;;13.13;4.17;;;8.60;99.90;;;;;;4899915;29;39440;-72
2022/11/21 12:22:30;;;;;;;9.93;3.97;;;8.60;99.90;;;;;;4891232;29;39132;-72
2022/11/21 12:24:56;;;;;;;15.97;4.77;;;8.60;99.90;;;;;;4886280;29;37331;-72
2022/11/21 12:27:31;;;;;;;8.60;4.10;;;8.70;99.90;;;;;;4891402;29;38623;-71
2022/11/21 12:30:06;;;;;;;12.77;3.83;;;8.70;99.90;;;;;;4890911;29;37637;-72
2022/11/21 12:32:49;;;;;;;12.90;4.50;;;8.70;99.90;;;;;;4890911;29;48506;-72
2022/11/21 12:35:47;;;;;;;15.77;4.13;;;8.70;99.90;;;;;;4899250;29;36072;-72
2022/11/21 12:38:49;;;;;;;19.03;4.13;;;8.60;99.90;;;;;;4891309;29;38994;-73
2022/11/21 12:44:31;;;;;;;12.53;3.83;;;8.80;99.90;;;;;;4890045;29;38357;-71
2022/11/21 12:47:21;;;;;;;7.07;3.03;;;8.80;99.90;;;;;;4884318;29;38174;-72
2022/11/21 12:56:17;;;;;;;9.37;3.03;;;8.70;99.90;;;;;;4882781;29;50051;-74
2022/11/21 12:58:48;;;;;;;10.73;3.60;;;8.80;99.90;;;;;;4878806;29;48727;-72
2022/11/21 13:01:33;;;;;;;7.40;2.40;;;8.80;99.90;;;;;;4884025;29;38701;-72
2022/11/21 13:04:04;;;;;;;10.57;2.87;;;8.80;99.90;;;;;;4892492;29;40026;-72
2022/11/21 13:06:39;;;;;;;11.33;2.50;;;8.80;99.90;;;;;;4883284;29;47152;-72
2022/11/21 13:09:12;;;;;;;10.67;3.00;;;8.80;99.90;;;;;;4902742;29;37947;-71
2022/11/21 13:11:58;;;;;;;13.68;2.10;;;8.70;99.90;;;;;;4903447;29;37639;-73
2022/11/21 13:14:49;;;;;;;12.10;2.30;;;8.70;99.90;;;;;;4892938;29;38390;-72
2022/11/21 13:17:25;;;;;;;9.30;2.43;;;8.80;99.90;;;;;;4888597;29;37155;-72
2022/11/21 13:19:58;;;;;;;11.90;3.37;;;8.80;99.90;;;;;;4896671;29;36228;-72
2022/11/21 13:22:36;;;;;;;7.77;2.77;;;8.80;99.90;;;;;;4893772;28;38537;-71
2022/11/21 13:25:10;;;;;;;12.87;2.67;;;8.80;99.90;;;;;;4904431;29;37178;-71
2022/11/21 13:27:38;;;;;;;12.17;4.10;;;8.70;99.90;;;;;;4899241;29;47273;-71
2022/11/21 13:30:10;;;;;;;11.80;3.10;;;8.90;99.90;;;;;;4891903;29;36909;-72
2022/11/21 13:32:39;;;;;;;9.63;2.78;;;8.80;99.90;;;;;;4890353;28;39037;-72
2022/11/21 13:35:20;;;;;;;13.07;3.03;;;8.70;99.90;;;;;;4894792;29;37085;-71